createdAt,value
2018-06-21T00:02:27.530Z,100468.00
2018-06-21T00:05:03.345Z,100457.00
2018-06-21T00:07:32.560Z,100462.00
2018-06-21T00:10:01.729Z,100459.00
2018-06-21T00:12:30.907Z,100450.00
2018-06-21T00:15:00.093Z,100455.00
2018-06-21T00:17:29.261Z,100457.00
2018-06-21T00:19:58.467Z,100453.00
2018-06-21T00:22:27.661Z,100446.00
2018-06-21T00:24:56.828Z,100446.00
2018-06-21T00:30:26.302Z,100454.00
2018-06-21T00:35:56.079Z,100441.00
2018-06-21T00:38:25.252Z,100443.00
2018-06-21T00:40:54.401Z,100439.00
2018-06-21T00:43:23.615Z,100429.00
2018-06-21T00:45:52.791Z,100432.00
2018-06-21T00:48:21.962Z,100427.00
2018-06-21T00:50:51.234Z,100431.00
2018-06-21T00:53:20.401Z,100429.00
2018-06-21T00:58:49.969Z,100428.00
2018-06-21T01:04:19.645Z,100427.00
2018-06-21T01:06:48.808Z,100419.00
2018-06-21T01:09:17.970Z,100421.00
2018-06-21T01:11:47.181Z,100417.00
2018-06-21T01:14:16.350Z,100422.00
2018-06-21T01:17:04.517Z,100417.00
2018-06-21T01:19:33.680Z,100415.00
2018-06-21T01:22:02.848Z,100404.00
2018-06-21T01:27:32.045Z,100412.00
2018-06-21T01:33:01.754Z,100403.00
2018-06-21T01:35:30.912Z,100401.00
2018-06-21T01:41:00.857Z,100394.00
2018-06-21T01:43:30.081Z,100390.00
2018-06-21T01:45:59.261Z,100386.00
2018-06-21T01:48:28.419Z,100384.00
2018-06-21T01:50:58.149Z,100384.00
2018-06-21T01:53:28.025Z,100384.00
2018-06-21T01:55:57.177Z,100375.00
2018-06-21T02:01:26.442Z,100371.00
2018-06-21T02:03:55.970Z,100359.00
2018-06-21T02:06:25.148Z,100365.00
2018-06-21T02:08:54.200Z,100359.00
2018-06-21T02:11:23.367Z,100353.00
2018-06-21T02:13:52.542Z,100359.00
2018-06-21T02:16:21.793Z,100357.00
2018-06-21T02:18:50.958Z,100350.00
2018-06-21T02:21:20.174Z,100341.00
2018-06-21T02:23:49.374Z,100347.00
2018-06-21T02:26:18.528Z,100336.00
2018-06-21T02:28:47.760Z,100335.00
2018-06-21T02:31:16.952Z,100330.00
2018-06-21T02:36:46.834Z,100332.00
2018-06-21T02:39:15.987Z,100325.00
2018-06-21T02:41:45.134Z,100323.00
2018-06-21T02:44:14.317Z,100322.00
2018-06-21T02:46:43.470Z,100317.00
2018-06-21T02:49:12.633Z,100313.00
2018-06-21T02:51:42.002Z,100308.00
2018-06-21T02:57:12.056Z,100306.00
2018-06-21T02:59:41.218Z,100298.00
2018-06-21T03:05:10.757Z,100301.00
2018-06-21T03:07:39.949Z,100296.00
2018-06-21T03:10:08.794Z,100301.00
2018-06-21T03:12:37.985Z,100294.00
2018-06-21T03:15:07.364Z,100290.00
2018-06-21T03:17:36.537Z,100292.00
2018-06-21T03:20:05.750Z,100298.00
2018-06-21T03:22:34.906Z,100289.00
2018-06-21T03:25:04.085Z,100287.00
2018-06-21T03:27:33.315Z,100281.00
2018-06-21T03:30:03.919Z,100271.00
2018-06-21T03:32:33.111Z,100273.00
2018-06-21T03:38:16.702Z,100274.00
2018-06-21T03:40:45.862Z,100265.00
2018-06-21T03:43:15.045Z,100262.00
2018-06-21T03:45:44.246Z,100254.00
2018-06-21T03:48:13.428Z,100259.00
2018-06-21T03:51:01.621Z,100254.00
2018-06-21T03:53:31.213Z,100256.00
2018-06-21T03:56:00.378Z,100257.00
2018-06-21T03:58:29.594Z,100258.00
2018-06-21T04:00:58.777Z,100258.00
2018-06-21T04:06:28.357Z,100248.00
2018-06-21T04:08:57.812Z,100249.00
2018-06-21T04:11:26.957Z,100243.00
2018-06-21T04:13:56.148Z,100245.00
2018-06-21T04:16:25.317Z,100245.00
2018-06-21T04:21:55.019Z,100243.00
2018-06-21T04:24:24.170Z,100241.00
2018-06-21T04:26:53.631Z,100236.00
2018-06-21T04:29:22.808Z,100236.00
2018-06-21T04:31:51.980Z,100236.00
2018-06-21T04:34:21.139Z,100237.00
2018-06-21T04:36:50.319Z,100235.00
2018-06-21T04:39:19.468Z,100231.00
2018-06-21T04:41:48.640Z,100231.00
2018-06-21T04:44:17.800Z,100231.00
2018-06-21T04:47:03.642Z,100231.00
2018-06-21T04:49:32.893Z,100222.00
2018-06-21T04:52:02.112Z,100223.00
2018-06-21T04:57:32.009Z,100221.00
2018-06-21T05:00:01.239Z,100219.00
2018-06-21T05:02:30.425Z,100213.00
2018-06-21T05:04:59.621Z,100221.00
2018-06-21T05:07:28.800Z,100201.00
2018-06-21T05:09:57.953Z,100204.00
2018-06-21T05:15:27.973Z,100191.00
2018-06-21T05:17:57.128Z,100194.00
2018-06-21T05:20:26.319Z,100184.00
2018-06-21T05:22:55.288Z,100186.00
2018-06-21T05:25:24.466Z,100179.00
2018-06-21T05:27:53.651Z,100182.00
2018-06-21T05:30:22.858Z,100186.00
2018-06-21T05:32:52.022Z,100178.00
2018-06-21T05:35:21.173Z,100173.00
2018-06-21T05:37:50.383Z,100176.00
2018-06-21T05:43:19.899Z,100155.00
2018-06-21T05:45:49.061Z,100160.00
2018-06-21T05:48:18.220Z,100157.00
2018-06-21T05:50:47.436Z,100151.00
2018-06-21T05:53:16.600Z,100147.00
2018-06-21T05:56:08.695Z,100147.00
2018-06-21T05:58:37.906Z,100145.00
2018-06-21T06:01:07.397Z,100143.00
2018-06-21T06:07:01.973Z,100139.00
2018-06-21T06:09:31.199Z,100132.00
2018-06-21T06:12:03.705Z,100128.00
2018-06-21T06:15:02.202Z,100132.00
2018-06-21T06:17:32.091Z,100127.00
2018-06-21T06:32:05.424Z,100101.00
2018-06-21T06:37:35.205Z,100088.00
2018-06-21T06:40:04.430Z,100091.00
2018-06-21T06:45:34.341Z,100083.00
2018-06-21T06:48:03.501Z,100067.00
2018-06-21T06:51:01.557Z,100068.00
2018-06-21T06:53:30.733Z,100061.00
2018-06-21T07:07:03.495Z,100043.00
2018-06-21T07:27:42.789Z,99991.00
2018-06-21T07:30:12.037Z,99991.00
2018-06-21T07:33:02.037Z,99989.00
2018-06-21T07:36:00.766Z,99982.00
2018-06-21T07:47:30.093Z,99971.00
2018-06-21T07:50:05.430Z,99957.00
2018-06-21T07:52:34.626Z,99961.00
2018-06-21T07:55:03.827Z,99947.00
2018-06-21T08:00:38.798Z,99945.00
2018-06-21T08:03:08.019Z,99943.00
2018-06-21T08:08:37.027Z,99942.00
2018-06-21T08:11:06.231Z,99937.00
2018-06-21T08:14:00.860Z,99945.00
2018-06-21T08:28:36.553Z,99921.00
2018-06-21T08:31:05.702Z,99921.00
2018-06-21T08:48:37.071Z,99892.00
2018-06-21T08:59:03.349Z,99893.00
2018-06-21T09:11:02.533Z,99877.00
2018-06-21T09:22:32.776Z,99861.00
2018-06-21T09:25:03.721Z,99862.00
2018-06-21T09:30:38.749Z,99839.00
2018-06-21T09:33:08.121Z,99848.00
2018-06-21T09:35:37.284Z,99831.00
2018-06-21T09:41:07.724Z,99833.00
2018-06-21T09:50:02.531Z,99804.00
2018-06-21T09:56:00.754Z,99794.00
2018-06-21T10:07:42.344Z,99770.00
2018-06-21T10:10:36.947Z,99772.00
2018-06-21T10:13:06.145Z,99776.00
2018-06-21T10:35:13.665Z,99721.00
2018-06-21T10:40:42.781Z,99710.00
2018-06-21T10:46:22.469Z,99697.00
2018-06-21T10:52:25.441Z,99696.00
2018-06-21T10:55:03.223Z,99687.00
2018-06-21T11:25:02.314Z,99646.00
2018-06-21T11:42:29.574Z,99627.00
2018-06-21T11:45:04.277Z,99616.00
2018-06-21T11:48:02.415Z,99620.00
2018-06-21T12:12:04.863Z,99610.00
2018-06-21T12:18:01.886Z,99598.00
2018-06-21T12:20:38.977Z,99590.00
2018-06-21T12:23:08.149Z,99598.00
2018-06-21T12:29:03.088Z,99567.00
2018-06-21T12:35:00.977Z,99546.00
2018-06-21T12:40:38.598Z,99531.00
2018-06-21T12:43:07.861Z,99536.00
2018-06-21T12:48:38.393Z,99520.00
2018-06-21T12:51:07.671Z,99521.00
2018-06-21T13:00:02.585Z,99511.00
2018-06-21T13:09:01.033Z,99500.00
2018-06-21T13:20:39.588Z,99479.00
2018-06-21T13:23:08.807Z,99467.00
2018-06-21T13:29:01.886Z,99459.00
2018-06-21T13:41:01.721Z,99454.00
2018-06-21T13:53:01.618Z,99544.00
2018-06-21T14:11:01.032Z,99737.00
2018-06-21T14:16:30.854Z,99647.00
2018-06-21T14:25:03.857Z,99576.00
2018-06-21T14:28:02.717Z,99584.00
2018-06-21T14:34:01.062Z,99540.00
2018-06-21T14:36:30.563Z,99543.00
2018-06-21T14:39:22.675Z,99541.00
2018-06-21T14:41:51.940Z,99543.00
2018-06-21T14:44:21.120Z,99533.00
2018-06-21T14:47:03.016Z,99529.00
2018-06-21T14:49:32.194Z,99528.00
2018-06-21T14:52:01.407Z,99543.00
2018-06-21T14:57:31.180Z,99545.00
2018-06-21T15:00:04.526Z,99569.00
2018-06-21T15:02:33.743Z,99577.00
2018-06-21T15:05:02.927Z,99600.00
2018-06-21T15:07:32.088Z,99616.00
2018-06-21T15:10:01.272Z,99625.00
2018-06-21T15:12:30.549Z,99637.00
2018-06-21T15:15:05.906Z,99661.00
2018-06-21T15:17:35.134Z,99668.00
2018-06-21T15:20:04.295Z,99703.00
2018-06-21T15:23:02.229Z,99729.00
2018-06-21T15:28:31.704Z,99752.00
2018-06-21T15:31:00.890Z,99757.00
2018-06-21T15:33:30.032Z,99779.00
2018-06-21T15:35:59.213Z,99820.00
2018-06-21T15:38:28.398Z,99811.00
2018-06-21T15:40:57.554Z,99826.00
2018-06-21T15:45:03.374Z,99830.00
2018-06-21T15:47:32.678Z,99827.00
2018-06-21T15:50:02.165Z,99848.00
2018-06-21T15:52:31.336Z,99848.00
2018-06-21T15:55:00.505Z,99856.00
2018-06-21T15:57:29.796Z,99878.00
2018-06-21T16:00:05.700Z,99892.00
2018-06-21T16:02:34.873Z,99911.00
2018-06-21T16:05:04.021Z,99928.00
2018-06-21T16:07:33.237Z,99954.00
2018-06-21T16:10:02.482Z,99956.00
2018-06-21T16:12:31.655Z,99964.00
2018-06-21T16:15:00.853Z,99987.00
2018-06-21T16:17:30.050Z,99973.00
2018-06-21T16:19:59.244Z,99972.00
2018-06-21T16:25:28.702Z,99986.00
2018-06-21T16:27:57.853Z,100009.00
2018-06-21T16:30:27.069Z,100027.00
2018-06-21T16:36:04.129Z,100045.00
2018-06-21T16:38:33.283Z,100060.00
2018-06-21T16:41:05.535Z,100079.00
2018-06-21T16:43:34.703Z,100089.00
2018-06-21T16:46:04.045Z,100099.00
2018-06-21T16:48:33.233Z,100098.00
2018-06-21T16:52:22.589Z,100099.00
2018-06-21T16:54:51.796Z,100116.00
2018-06-21T16:57:21.029Z,100123.00
2018-06-21T16:59:50.448Z,100125.00
2018-06-21T17:05:20.266Z,100116.00
2018-06-21T17:08:02.664Z,100115.00
2018-06-21T17:10:31.862Z,100119.00
2018-06-21T17:13:01.053Z,100121.00
2018-06-21T17:15:30.239Z,100137.00
2018-06-21T17:17:59.786Z,100130.00
2018-06-21T17:23:29.092Z,100123.00
2018-06-21T17:25:58.300Z,100135.00
2018-06-21T17:28:27.260Z,100131.00
2018-06-21T17:30:56.449Z,100137.00
2018-06-21T17:33:25.605Z,100133.00
2018-06-21T17:36:05.256Z,100153.00
2018-06-21T17:38:34.792Z,100165.00
2018-06-21T17:41:04.042Z,100158.00
2018-06-21T17:43:33.249Z,100168.00
2018-06-21T17:55:02.694Z,100184.00
2018-06-21T17:57:31.867Z,100180.00
2018-06-21T18:00:05.032Z,100184.00
2018-06-21T18:05:34.805Z,100189.00
2018-06-21T18:08:04.251Z,100186.00
2018-06-21T18:10:33.650Z,100183.00
2018-06-21T18:13:02.846Z,100184.00
2018-06-21T18:15:32.013Z,100199.00
2018-06-21T18:21:08.641Z,100195.00
2018-06-21T18:23:37.793Z,100198.00
2018-06-21T18:26:07.424Z,100208.00
2018-06-21T18:28:36.643Z,100200.00
2018-06-21T18:31:05.828Z,100194.00
2018-06-21T18:33:35.057Z,100208.00
2018-06-21T18:36:04.274Z,100208.00
2018-06-21T18:39:02.404Z,100224.00
2018-06-21T18:41:31.572Z,100236.00
2018-06-21T18:44:00.746Z,100245.00
2018-06-21T18:46:29.974Z,100258.00
2018-06-21T18:48:59.164Z,100266.00
2018-06-21T18:51:28.328Z,100263.00
2018-06-21T18:53:57.512Z,100265.00
2018-06-21T18:56:26.714Z,100276.00
2018-06-21T18:58:55.950Z,100267.00
2018-06-21T19:01:24.909Z,100277.00
2018-06-21T19:07:07.910Z,100283.00
2018-06-21T19:25:02.637Z,100300.00
2018-06-21T19:39:13.841Z,100321.00
2018-06-21T19:42:01.430Z,100330.00
2018-06-21T19:44:30.587Z,100336.00
2018-06-21T19:49:53.081Z,100335.00
2018-06-21T19:52:22.021Z,100332.00
2018-06-21T19:55:03.914Z,100334.00
2018-06-21T20:00:27.128Z,100338.00
2018-06-21T20:05:50.212Z,100336.00
2018-06-21T20:11:18.125Z,100333.00
2018-06-21T20:13:51.396Z,100338.00
2018-06-21T20:19:15.720Z,100335.00
2018-06-21T20:21:44.862Z,100336.00
2018-06-21T20:24:13.956Z,100333.00
2018-06-21T20:26:43.534Z,100340.00
2018-06-21T20:29:17.887Z,100335.00
2018-06-21T20:31:47.030Z,100346.00
2018-06-21T20:34:15.981Z,100345.00
2018-06-21T20:36:45.185Z,100338.00
2018-06-21T20:39:14.157Z,100335.00
2018-06-21T20:41:43.097Z,100345.00
2018-06-21T20:44:12.285Z,100349.00
2018-06-21T20:46:41.402Z,100337.00
2018-06-21T20:49:10.347Z,100341.00
2018-06-21T20:54:32.929Z,100337.00
2018-06-21T20:57:01.884Z,100345.00
2018-06-21T20:59:30.812Z,100361.00
2018-06-21T21:02:03.637Z,100347.00
2018-06-21T21:04:44.231Z,100349.00
2018-06-21T21:07:13.245Z,100337.00
2018-06-21T21:12:26.750Z,100336.00
2018-06-21T21:14:55.703Z,100345.00
2018-06-21T21:17:24.857Z,100348.00
2018-06-21T21:19:53.969Z,100345.00
2018-06-21T21:22:22.921Z,100356.00
2018-06-21T21:27:45.712Z,100350.00
2018-06-21T21:30:14.648Z,100344.00
2018-06-21T21:32:43.572Z,100345.00
2018-06-21T21:38:06.160Z,100343.00
2018-06-21T21:40:35.158Z,100340.00
2018-06-21T21:43:04.088Z,100337.00
2018-06-21T21:45:33.064Z,100339.00
2018-06-21T21:48:01.988Z,100345.00
2018-06-21T21:50:30.912Z,100339.00
2018-06-21T21:52:59.873Z,100346.00
2018-06-21T21:58:22.350Z,100352.00
2018-06-21T22:00:54.378Z,100348.00
2018-06-21T22:03:23.325Z,100341.00
2018-06-21T22:05:52.235Z,100353.00
2018-06-21T22:08:21.168Z,100363.00
2018-06-21T22:10:50.317Z,100360.00
2018-06-21T22:13:19.364Z,100358.00
2018-06-21T22:18:42.478Z,100350.00
2018-06-21T22:24:05.405Z,100347.00
2018-06-21T22:26:34.366Z,100362.00
2018-06-21T22:29:03.308Z,100358.00
2018-06-21T22:31:32.444Z,100363.00
2018-06-21T22:34:01.383Z,100373.00
2018-06-21T22:36:30.303Z,100383.00
2018-06-21T22:38:59.536Z,100384.00
2018-06-21T22:41:28.459Z,100373.00
2018-06-21T22:44:03.482Z,100380.00
2018-06-21T22:46:32.417Z,100387.00
2018-06-21T22:49:01.375Z,100384.00
2018-06-21T22:51:30.405Z,100387.00
2018-06-21T22:53:59.324Z,100394.00
2018-06-21T23:02:16.755Z,100408.00
2018-06-21T23:04:45.661Z,100407.00
2018-06-21T23:07:14.614Z,100412.00
2018-06-21T23:11:20.176Z,100414.00
2018-06-21T23:13:49.186Z,100429.00
2018-06-21T23:16:18.181Z,100431.00
2018-06-21T23:18:58.565Z,100438.00
2018-06-21T23:21:27.472Z,100438.00
2018-06-21T23:23:56.464Z,100441.00
2018-06-21T23:26:25.427Z,100445.00
2018-06-21T23:28:54.393Z,100445.00
2018-06-21T23:34:17.581Z,100437.00
2018-06-21T23:36:46.521Z,100443.00
2018-06-21T23:42:09.981Z,100451.00
2018-06-21T23:44:38.941Z,100462.00
2018-06-21T23:50:08.689Z,100466.00
2018-06-21T23:57:30.200Z,100467.00
